createdAt,value
2023-04-11T00:03:20.455Z,9.30
2023-04-11T00:07:22.357Z,9.20
2023-04-11T00:11:24.285Z,9.20
2023-04-11T00:15:26.673Z,9.20
2023-04-11T00:19:28.810Z,9.20
2023-04-11T00:23:30.652Z,9.20
2023-04-11T00:27:32.336Z,9.30
2023-04-11T00:31:35.386Z,9.30
2023-04-11T00:35:39.292Z,9.30
2023-04-11T00:39:41.034Z,9.30
2023-04-11T00:43:42.710Z,9.30
2023-04-11T00:47:44.537Z,9.30
2023-04-11T00:51:46.215Z,9.30
2023-04-11T00:55:48.247Z,9.30
2023-04-11T00:59:51.396Z,9.40
2023-04-11T01:03:53.673Z,9.40
2023-04-11T01:07:56.200Z,9.50
2023-04-11T01:11:59.445Z,9.50
2023-04-11T01:16:01.393Z,9.50
2023-04-11T01:20:05.336Z,9.50
2023-04-11T01:24:07.584Z,9.50
2023-04-11T01:28:09.849Z,9.50
2023-04-11T01:32:11.483Z,9.60
2023-04-11T01:36:13.372Z,9.60
2023-04-11T01:40:18.214Z,9.50
2023-04-11T01:44:20.796Z,9.50
2023-04-11T01:48:22.570Z,9.50
2023-04-11T01:52:24.290Z,9.50
2023-04-11T01:56:25.997Z,9.40
2023-04-11T02:00:27.641Z,9.50
2023-04-11T02:04:29.540Z,9.50
2023-04-11T02:08:31.610Z,9.40
2023-04-11T02:12:33.749Z,9.40
2023-04-11T02:16:54.092Z,9.40
2023-04-11T02:20:55.789Z,9.30
2023-04-11T02:24:57.425Z,9.20
2023-04-11T02:28:59.537Z,9.10
2023-04-11T02:33:01.544Z,9.00
2023-04-11T02:37:03.254Z,9.00
2023-04-11T02:41:05.904Z,9.00
2023-04-11T02:45:08.267Z,9.00
2023-04-11T02:49:10.134Z,9.00
2023-04-11T02:53:12.100Z,8.90
2023-04-11T02:57:13.805Z,8.90
2023-04-11T03:01:17.016Z,8.90
2023-04-11T03:05:18.753Z,8.90
2023-04-11T03:09:21.315Z,8.90
2023-04-11T03:13:23.097Z,8.90
2023-04-11T03:17:24.746Z,8.80
2023-04-11T03:21:27.194Z,8.80
2023-04-11T03:25:29.589Z,8.70
2023-04-11T03:29:32.464Z,8.70
2023-04-11T03:33:34.163Z,8.60
2023-04-11T03:37:36.405Z,8.50
2023-04-11T03:41:38.137Z,8.60
2023-04-11T03:45:39.782Z,8.40
2023-04-11T03:49:41.408Z,8.50
2023-04-11T03:53:43.048Z,8.50
2023-04-11T03:57:44.689Z,8.60
2023-04-11T04:01:46.393Z,8.60
2023-04-11T04:05:48.397Z,8.60
2023-04-11T04:09:50.610Z,8.70
2023-04-11T04:13:52.291Z,8.70
2023-04-11T04:17:54.050Z,8.70
2023-04-11T04:21:58.185Z,8.70
2023-04-11T04:26:02.020Z,8.70
2023-04-11T04:30:04.666Z,8.70
2023-04-11T04:34:10.531Z,8.70
2023-04-11T04:38:17.222Z,8.70
2023-04-11T04:42:18.872Z,8.60
2023-04-11T04:46:20.779Z,8.50
2023-04-11T04:50:22.530Z,8.50
2023-04-11T04:54:24.297Z,8.50
2023-04-11T04:58:27.381Z,8.50
2023-04-11T05:02:29.235Z,8.60
2023-04-11T05:06:32.407Z,8.60
2023-04-11T05:10:34.144Z,8.50
2023-04-11T05:14:35.934Z,8.60
2023-04-11T05:18:37.578Z,8.60
2023-04-11T05:22:39.303Z,8.70
2023-04-11T05:26:41.028Z,8.70
2023-04-11T05:30:42.718Z,8.70
2023-04-11T05:34:53.089Z,8.70
2023-04-11T05:38:55.037Z,8.60
2023-04-11T05:42:56.722Z,8.50
2023-04-11T05:46:58.377Z,8.50
2023-04-11T05:51:00.275Z,8.60
2023-04-11T05:55:02.035Z,8.50
2023-04-11T05:59:04.819Z,8.50
2023-04-11T06:03:07.865Z,8.60
2023-04-11T06:07:09.810Z,8.60
2023-04-11T06:11:11.718Z,8.60
2023-04-11T06:15:13.813Z,8.70
2023-04-11T06:19:15.586Z,8.70
2023-04-11T06:23:17.308Z,8.80
2023-04-11T06:27:19.011Z,8.90
2023-04-11T06:31:20.804Z,9.10
2023-04-11T06:35:24.890Z,9.00
2023-04-11T06:39:26.988Z,9.10
2023-04-11T06:43:28.639Z,9.00
2023-04-11T06:47:30.287Z,9.00
2023-04-11T06:51:32.298Z,9.00
2023-04-11T06:55:33.945Z,8.90
2023-04-11T06:59:35.596Z,9.10
2023-04-11T07:03:37.815Z,9.10
2023-04-11T07:07:39.796Z,9.20
2023-04-11T07:11:41.767Z,9.20
2023-04-11T07:15:43.428Z,9.40
2023-04-11T07:19:45.126Z,9.30
2023-04-11T07:23:46.958Z,9.30
2023-04-11T07:27:51.421Z,9.40
2023-04-11T07:31:53.407Z,9.40
2023-04-11T07:35:55.668Z,9.50
2023-04-11T07:39:57.316Z,9.60
2023-04-11T07:43:58.974Z,9.60
2023-04-11T07:48:00.858Z,9.70
2023-04-11T07:52:02.842Z,10.00
2023-04-11T07:56:05.007Z,10.20
2023-04-11T08:00:11.414Z,10.30
2023-04-11T08:04:13.692Z,10.30
2023-04-11T08:08:16.478Z,10.30
2023-04-11T08:12:18.127Z,10.50
2023-04-11T08:16:19.858Z,10.90
2023-04-11T08:20:22.173Z,11.10
2023-04-11T08:24:23.850Z,11.10
2023-04-11T08:28:25.541Z,11.10
2023-04-11T08:32:27.314Z,11.00
2023-04-11T08:36:29.951Z,11.10
2023-04-11T08:40:32.231Z,11.50
2023-04-11T08:44:34.051Z,11.50
2023-04-11T08:48:36.072Z,11.10
2023-04-11T08:52:39.394Z,11.90
2023-04-11T08:56:43.009Z,12.60
2023-04-11T09:00:45.214Z,12.20
2023-04-11T09:04:47.576Z,12.20
2023-04-11T09:08:49.542Z,11.90
2023-04-11T09:12:51.458Z,11.70
2023-04-11T09:16:55.658Z,11.50
2023-04-11T09:21:03.000Z,11.90
2023-04-11T09:25:04.792Z,12.40
2023-04-11T09:29:06.465Z,12.10
2023-04-11T09:33:22.911Z,11.60
2023-04-11T09:37:24.694Z,11.30
2023-04-11T09:41:33.928Z,11.40
2023-04-11T09:45:47.809Z,11.70
2023-04-11T09:49:58.628Z,12.30
2023-04-11T09:54:02.063Z,12.20
2023-04-11T09:58:06.101Z,12.00
2023-04-11T10:02:08.146Z,11.90
2023-04-11T10:06:14.101Z,11.60
2023-04-11T10:10:20.436Z,11.50
2023-04-11T10:14:37.318Z,11.40
2023-04-11T10:19:00.316Z,11.80
2023-04-11T10:23:02.273Z,12.80
2023-04-11T10:27:04.806Z,13.90
2023-04-11T10:31:13.942Z,14.00
2023-04-11T10:35:18.356Z,15.70
2023-04-11T10:39:52.021Z,15.90
2023-04-11T10:44:19.406Z,15.80
2023-04-11T10:48:21.222Z,16.00
2023-04-11T10:52:24.060Z,16.30
2023-04-11T10:56:46.718Z,15.50
2023-04-11T11:00:54.193Z,15.10
2023-04-11T11:04:56.215Z,15.10
2023-04-11T11:08:59.459Z,15.80
2023-04-11T11:13:01.131Z,16.40
2023-04-11T11:17:03.080Z,14.50
2023-04-11T11:21:07.372Z,14.60
2023-04-11T11:25:11.148Z,15.20
2023-04-11T11:29:13.128Z,16.00
2023-04-11T11:33:17.767Z,16.50
2023-04-11T11:37:19.896Z,17.40
2023-04-11T11:41:21.790Z,17.80
2023-04-11T11:45:23.772Z,17.10
2023-04-11T11:49:25.481Z,17.20
2023-04-11T11:53:27.094Z,16.50
2023-04-11T11:57:28.829Z,17.40
2023-04-11T12:01:32.585Z,17.30
2023-04-11T12:05:34.898Z,16.20
2023-04-11T12:09:36.890Z,14.80
2023-04-11T12:13:38.565Z,14.50
2023-04-11T12:17:40.851Z,14.70
2023-04-11T12:21:42.539Z,16.80
2023-04-11T12:25:44.501Z,16.80
2023-04-11T12:29:49.252Z,15.20
2023-04-11T12:33:50.930Z,14.20
2023-04-11T12:37:52.641Z,14.00
2023-04-11T12:41:54.318Z,13.30
2023-04-11T12:45:56.094Z,13.30
2023-04-11T12:49:57.830Z,15.40
2023-04-11T12:53:59.474Z,16.90
2023-04-11T12:58:02.048Z,16.90
2023-04-11T13:02:03.907Z,15.30
2023-04-11T13:06:06.060Z,15.90
2023-04-11T13:10:08.384Z,17.50
2023-04-11T13:14:10.261Z,17.80
2023-04-11T13:18:11.943Z,18.80
2023-04-11T13:22:13.651Z,19.00
2023-04-11T13:26:15.296Z,18.40
2023-04-11T13:30:17.045Z,17.40
2023-04-11T13:34:18.826Z,17.90
2023-04-11T13:38:20.611Z,19.20
2023-04-11T13:42:22.459Z,19.60
2023-04-11T13:46:24.170Z,19.30
2023-04-11T13:50:25.849Z,17.60
2023-04-11T13:54:27.495Z,16.90
2023-04-11T13:58:32.368Z,16.20
2023-04-11T14:02:34.061Z,18.20
2023-04-11T14:06:37.419Z,18.00
2023-04-11T14:10:39.147Z,18.00
2023-04-11T14:14:40.814Z,17.80
2023-04-11T14:18:42.541Z,18.40
2023-04-11T14:22:44.970Z,18.50
2023-04-11T14:26:46.649Z,17.70
2023-04-11T14:30:48.471Z,18.30
2023-04-11T14:34:52.165Z,18.70
2023-04-11T14:38:53.802Z,18.80
2023-04-11T14:42:58.350Z,17.10
2023-04-11T14:47:00.369Z,15.80
2023-04-11T14:51:05.386Z,15.90
2023-04-11T14:55:07.940Z,15.70
2023-04-11T14:59:11.347Z,15.30
2023-04-11T15:03:13.256Z,14.60
2023-04-11T15:07:14.970Z,14.20
2023-04-11T15:11:16.656Z,14.30
2023-04-11T15:15:18.537Z,14.40
2023-04-11T15:19:20.180Z,14.30
2023-04-11T15:23:22.051Z,13.70
2023-04-11T15:27:23.863Z,13.80
2023-04-11T15:31:26.533Z,13.70
2023-04-11T15:35:28.852Z,13.60
2023-04-11T15:39:30.807Z,13.70
2023-04-11T15:43:32.900Z,13.70
2023-04-11T15:47:34.729Z,13.70
2023-04-11T15:51:36.415Z,13.70
2023-04-11T15:55:40.623Z,13.80
2023-04-11T15:59:42.276Z,13.70
2023-04-11T16:03:44.973Z,13.50
2023-04-11T16:07:47.837Z,13.60
2023-04-11T16:11:49.499Z,13.70
2023-04-11T16:15:51.251Z,13.60
2023-04-11T16:19:53.551Z,13.70
2023-04-11T16:23:55.832Z,13.80
2023-04-11T16:27:57.872Z,13.70
2023-04-11T16:31:59.523Z,13.70
2023-04-11T16:36:01.455Z,13.70
2023-04-11T16:40:07.731Z,13.70
2023-04-11T16:44:11.344Z,13.50
2023-04-11T16:48:13.139Z,13.40
2023-04-11T16:52:14.792Z,13.30
2023-04-11T16:56:19.461Z,13.20
2023-04-11T17:00:21.360Z,13.10
2023-04-11T17:04:23.092Z,13.10
2023-04-11T17:08:26.348Z,13.10
2023-04-11T17:12:28.151Z,13.10
2023-04-11T17:16:29.906Z,13.00
2023-04-11T17:20:31.683Z,12.90
2023-04-11T17:24:33.411Z,12.80
2023-04-11T17:28:35.371Z,12.50
2023-04-11T17:32:38.310Z,12.30
2023-04-11T17:36:42.762Z,12.20
2023-04-11T17:40:44.626Z,12.10
2023-04-11T17:44:46.362Z,12.00
2023-04-11T17:48:47.948Z,11.90
2023-04-11T17:52:49.593Z,11.70
2023-04-11T17:56:52.453Z,11.80
2023-04-11T18:00:56.631Z,11.70
2023-04-11T18:04:59.410Z,11.50
2023-04-11T18:09:02.319Z,11.50
2023-04-11T18:13:04.003Z,11.40
2023-04-11T18:17:05.706Z,11.30
2023-04-11T18:21:07.996Z,11.10
2023-04-11T18:25:10.121Z,10.90
2023-04-11T18:29:11.751Z,10.90
2023-04-11T18:33:13.446Z,10.70
2023-04-11T18:37:15.221Z,10.70
2023-04-11T18:41:17.692Z,10.50
2023-04-11T18:45:22.957Z,10.40
2023-04-11T18:49:24.645Z,10.30
2023-04-11T18:53:28.157Z,10.10
2023-04-11T18:57:33.831Z,10.00
2023-04-11T19:01:36.989Z,9.90
2023-04-11T19:05:39.029Z,9.80
2023-04-11T19:09:40.762Z,9.70
2023-04-11T19:13:42.363Z,9.70
2023-04-11T19:17:44.070Z,9.60
2023-04-11T19:21:45.840Z,9.50
2023-04-11T19:25:47.564Z,9.50
2023-04-11T19:29:49.265Z,9.40
2023-04-11T19:33:52.189Z,9.30
2023-04-11T19:37:53.898Z,9.30
2023-04-11T19:41:55.995Z,9.30
2023-04-11T19:45:57.763Z,9.30
2023-04-11T19:50:00.475Z,9.30
2023-04-11T19:54:02.710Z,9.30
2023-04-11T19:58:04.313Z,9.40
2023-04-11T20:02:06.238Z,9.40
2023-04-11T20:06:09.320Z,9.50
2023-04-11T20:10:11.797Z,9.50
2023-04-11T20:14:13.455Z,9.50
2023-04-11T20:18:15.609Z,9.60
2023-04-11T20:22:18.933Z,9.60
2023-04-11T20:26:21.678Z,9.60
2023-04-11T20:30:23.394Z,9.70
2023-04-11T20:34:25.267Z,9.80
2023-04-11T20:38:27.513Z,9.90
2023-04-11T20:42:31.430Z,9.90
2023-04-11T20:46:33.466Z,9.90
2023-04-11T20:50:35.838Z,9.90
2023-04-11T20:54:37.692Z,9.80
2023-04-11T20:58:39.383Z,9.80
2023-04-11T21:02:43.864Z,9.90
2023-04-11T21:06:46.039Z,9.90
2023-04-11T21:10:47.692Z,9.90
2023-04-11T21:14:49.306Z,9.90
2023-04-11T21:18:50.953Z,9.90
2023-04-11T21:22:53.424Z,9.90
2023-04-11T21:26:55.132Z,9.80
2023-04-11T21:30:57.031Z,9.90
2023-04-11T21:34:58.675Z,9.90
2023-04-11T21:39:00.283Z,9.80
2023-04-11T21:43:02.613Z,9.90
2023-04-11T21:47:04.647Z,9.70
2023-04-11T21:51:06.735Z,9.80
2023-04-11T21:55:09.215Z,9.70
2023-04-11T21:59:10.993Z,9.80
2023-04-11T22:03:17.869Z,9.80
2023-04-11T22:07:23.957Z,9.70
2023-04-11T22:11:25.668Z,9.70
2023-04-11T22:15:27.324Z,9.60
2023-04-11T22:19:33.686Z,9.60
2023-04-11T22:23:35.842Z,9.60
2023-04-11T22:27:38.152Z,9.50
2023-04-11T22:31:39.824Z,9.60
2023-04-11T22:35:47.454Z,9.70
2023-04-11T22:39:49.804Z,9.70
2023-04-11T22:43:51.454Z,9.70
2023-04-11T22:47:59.793Z,9.60
2023-04-11T22:52:02.101Z,9.60
2023-04-11T22:56:04.117Z,9.60
2023-04-11T23:00:07.320Z,9.70
2023-04-11T23:04:09.038Z,9.60
2023-04-11T23:08:10.801Z,9.70
2023-04-11T23:12:12.770Z,9.70
2023-04-11T23:16:14.659Z,9.70
2023-04-11T23:20:17.510Z,9.70
2023-04-11T23:24:19.170Z,9.70
2023-04-11T23:28:20.949Z,9.70
2023-04-11T23:32:22.789Z,9.70
2023-04-11T23:36:24.750Z,9.80
2023-04-11T23:40:26.501Z,9.80
2023-04-11T23:44:28.191Z,9.80
2023-04-11T23:48:29.939Z,9.90
2023-04-11T23:52:31.868Z,9.90
2023-04-11T23:56:33.660Z,10.00
